createdAt,value
2022-12-17T00:01:53.410Z,57.93
2022-12-17T00:04:39.843Z,54.73
2022-12-17T00:07:25.476Z,52.17
2022-12-17T00:10:13.078Z,53.77
2022-12-17T00:12:59.335Z,55.03
2022-12-17T00:15:46.168Z,52.17
2022-12-17T00:18:32.343Z,55.23
2022-12-17T00:21:19.506Z,50.53
2022-12-17T00:24:07.138Z,53.90
2022-12-17T00:26:54.767Z,51.40
2022-12-17T00:29:42.250Z,62.20
2022-12-17T00:32:29.225Z,53.47
2022-12-17T00:35:15.123Z,50.93
2022-12-17T00:38:01.182Z,52.23
2022-12-17T00:40:43.868Z,52.87
2022-12-17T00:43:32.913Z,52.73
2022-12-17T00:46:19.164Z,51.10
2022-12-17T00:49:05.644Z,50.40
2022-12-17T00:51:51.816Z,54.00
2022-12-17T00:54:38.200Z,55.87
2022-12-17T00:57:26.538Z,55.40
2022-12-17T01:00:13.756Z,54.37
2022-12-17T01:02:59.626Z,53.77
2022-12-17T01:05:46.666Z,52.63
2022-12-17T01:08:34.131Z,49.20
2022-12-17T01:11:20.631Z,48.50
2022-12-17T01:14:07.333Z,50.93
2022-12-17T01:16:56.192Z,52.87
2022-12-17T01:19:42.329Z,49.03
2022-12-17T01:22:28.287Z,46.00
2022-12-17T01:25:14.118Z,55.00
2022-12-17T01:28:00.225Z,49.17
2022-12-17T01:30:45.946Z,54.83
2022-12-17T01:33:33.536Z,51.63
2022-12-17T01:36:19.960Z,53.00
2022-12-17T01:39:06.168Z,56.90
2022-12-17T01:41:52.618Z,47.77
2022-12-17T01:45:09.929Z,50.53
2022-12-17T01:48:08.108Z,55.23
2022-12-17T01:50:59.210Z,52.47
2022-12-17T01:53:48.609Z,51.63
2022-12-17T01:56:35.451Z,49.47
2022-12-17T01:59:22.966Z,47.43
2022-12-17T02:02:09.439Z,47.30
2022-12-17T02:04:55.885Z,54.00
2022-12-17T02:08:02.046Z,50.57
2022-12-17T02:10:53.712Z,49.90
2022-12-17T02:13:52.096Z,51.10
2022-12-17T02:16:43.862Z,47.23
2022-12-17T02:19:40.111Z,50.93
2022-12-17T02:22:31.304Z,49.17
2022-12-17T02:25:28.383Z,45.53
2022-12-17T02:28:15.963Z,44.20
2022-12-17T02:31:04.599Z,46.27
2022-12-17T02:33:51.002Z,48.73
2022-12-17T02:36:37.375Z,48.53
2022-12-17T02:39:23.917Z,47.47
2022-12-17T02:42:12.912Z,48.23
2022-12-17T02:45:02.398Z,48.07
2022-12-17T02:47:57.356Z,49.77
2022-12-17T02:50:43.272Z,48.07
2022-12-17T02:53:29.199Z,49.13
2022-12-17T02:56:15.224Z,47.13
2022-12-17T02:59:01.338Z,42.63
2022-12-17T03:01:48.829Z,45.73
2022-12-17T03:05:06.599Z,48.63
2022-12-17T03:08:03.608Z,44.77
2022-12-17T03:10:49.955Z,45.07
2022-12-17T03:13:41.807Z,42.00
2022-12-17T03:16:37.077Z,48.70
2022-12-17T03:19:25.208Z,45.17
2022-12-17T03:22:11.396Z,45.17
2022-12-17T03:24:57.267Z,45.90
2022-12-17T03:27:39.601Z,47.13
2022-12-17T03:30:26.752Z,46.53
2022-12-17T03:33:11.866Z,45.67
2022-12-17T03:35:59.192Z,41.97
2022-12-17T03:38:45.030Z,45.73
2022-12-17T03:41:30.933Z,39.73
2022-12-17T03:44:17.487Z,42.40
2022-12-17T03:47:03.463Z,47.87
2022-12-17T03:49:49.583Z,44.90
2022-12-17T03:52:36.985Z,47.83
2022-12-17T03:55:23.542Z,45.90
2022-12-17T03:58:09.875Z,45.43
2022-12-17T04:00:55.864Z,45.03
2022-12-17T04:03:42.380Z,42.30
2022-12-17T04:06:28.548Z,39.30
2022-12-17T04:09:16.123Z,42.43
2022-12-17T04:12:02.255Z,44.37
2022-12-17T04:14:47.975Z,45.87
2022-12-17T04:17:34.379Z,44.73
2022-12-17T04:20:20.310Z,43.30
2022-12-17T04:23:06.143Z,38.87
2022-12-17T04:25:53.687Z,43.67
2022-12-17T04:28:39.740Z,39.27
2022-12-17T04:31:25.980Z,40.33
2022-12-17T04:34:12.383Z,43.77
2022-12-17T04:36:58.679Z,39.07
2022-12-17T04:39:44.955Z,43.33
2022-12-17T04:42:32.292Z,41.57
2022-12-17T04:45:18.405Z,38.93
2022-12-17T04:48:04.543Z,41.80
2022-12-17T04:51:02.408Z,38.37
2022-12-17T04:53:48.671Z,41.13
2022-12-17T04:56:35.218Z,40.97
2022-12-17T04:59:22.528Z,42.43
2022-12-17T05:02:08.857Z,39.27
2022-12-17T05:04:56.071Z,42.07
2022-12-17T05:07:42.321Z,40.13
2022-12-17T05:10:28.418Z,36.47
2022-12-17T05:13:18.191Z,40.27
2022-12-17T05:16:06.357Z,40.90
2022-12-17T05:18:53.483Z,39.00
2022-12-17T05:21:39.278Z,36.10
2022-12-17T05:24:25.674Z,41.23
2022-12-17T05:27:11.663Z,44.17
2022-12-17T05:29:57.547Z,39.10
2022-12-17T05:32:45.101Z,39.27
2022-12-17T05:35:31.147Z,39.40
2022-12-17T05:38:22.569Z,40.40
2022-12-17T05:41:08.933Z,44.20
2022-12-17T05:43:55.018Z,43.47
2022-12-17T05:46:41.253Z,40.37
2022-12-17T05:49:28.810Z,42.43
2022-12-17T05:52:15.066Z,43.33
2022-12-17T05:55:01.026Z,40.90
2022-12-17T05:57:43.570Z,43.77
2022-12-17T06:00:30.503Z,38.33
2022-12-17T06:03:17.928Z,42.00
2022-12-17T06:06:06.522Z,45.53
2022-12-17T06:08:52.652Z,51.53
2022-12-17T06:11:37.758Z,45.30
2022-12-17T06:14:24.053Z,45.13
2022-12-17T06:17:09.779Z,43.53
2022-12-17T06:19:55.640Z,49.13
2022-12-17T06:22:43.171Z,46.23
2022-12-17T06:25:29.356Z,44.07
2022-12-17T06:28:19.325Z,49.78
2022-12-17T06:31:10.188Z,45.53
2022-12-17T06:33:56.466Z,52.93
2022-12-17T06:36:42.961Z,43.43
2022-12-17T06:39:30.334Z,45.37
2022-12-17T06:42:16.442Z,59.13
2022-12-17T06:45:02.629Z,43.10
2022-12-17T06:47:48.903Z,45.92
2022-12-17T06:50:35.046Z,42.92
2022-12-17T06:53:22.755Z,49.70
2022-12-17T06:56:10.832Z,50.60
2022-12-17T06:58:56.842Z,46.37
2022-12-17T07:01:42.877Z,41.40
2022-12-17T07:04:29.214Z,40.40
2022-12-17T07:07:15.195Z,42.87
2022-12-17T07:10:01.126Z,40.60
2022-12-17T07:12:48.956Z,41.23
2022-12-17T07:15:35.113Z,41.63
2022-12-17T07:18:21.945Z,38.17
2022-12-17T07:21:11.742Z,39.27
2022-12-17T07:23:57.783Z,38.53
2022-12-17T07:26:44.026Z,38.67
2022-12-17T07:29:31.824Z,36.73
2022-12-17T07:32:18.307Z,35.57
2022-12-17T07:35:04.375Z,39.07
2022-12-17T07:37:50.307Z,38.00
2022-12-17T07:40:39.456Z,39.20
2022-12-17T07:43:29.908Z,33.77
2022-12-17T07:46:19.559Z,38.27
2022-12-17T07:49:05.691Z,35.87
2022-12-17T07:51:51.758Z,38.87
2022-12-17T07:54:37.884Z,36.10
2022-12-17T07:57:23.729Z,41.07
2022-12-17T08:00:09.967Z,36.27
2022-12-17T08:02:57.622Z,37.63
2022-12-17T08:05:43.870Z,40.97
2022-12-17T08:08:31.614Z,37.37
2022-12-17T08:11:18.347Z,38.10
2022-12-17T08:14:04.701Z,35.40
2022-12-17T08:16:50.674Z,40.13
2022-12-17T08:19:38.307Z,37.13
2022-12-17T08:22:24.285Z,39.10
2022-12-17T08:25:10.949Z,39.43
2022-12-17T08:27:58.845Z,42.30
2022-12-17T08:56:58.124Z,48.80
2022-12-17T08:59:44.061Z,40.77
2022-12-17T09:02:30.313Z,75.77
2022-12-17T09:05:16.414Z,130.63
2022-12-17T09:08:02.628Z,82.00
2022-12-17T09:10:48.766Z,47.60
2022-12-17T09:13:36.957Z,48.67
2022-12-17T09:16:23.737Z,52.33
2022-12-17T09:19:10.177Z,51.53
2022-12-17T09:21:56.603Z,50.70
2022-12-17T09:24:42.804Z,63.13
2022-12-17T09:27:28.712Z,56.03
2022-12-17T09:30:16.387Z,92.30
2022-12-17T09:33:02.292Z,59.83
2022-12-17T09:35:48.491Z,48.83
2022-12-17T09:38:34.441Z,50.67
2022-12-17T09:41:31.936Z,40.37
2022-12-17T09:44:37.335Z,45.90
2022-12-17T09:47:33.517Z,53.33
2022-12-17T09:50:22.189Z,50.50
2022-12-17T09:53:09.198Z,46.30
2022-12-17T09:56:01.745Z,41.80
2022-12-17T09:58:54.814Z,46.47
2022-12-17T10:01:43.328Z,45.93
2022-12-17T10:04:43.728Z,48.10
2022-12-17T10:07:32.563Z,43.50
2022-12-17T10:10:29.424Z,44.17
2022-12-17T10:13:15.732Z,43.63
2022-12-17T10:16:01.818Z,46.53
2022-12-17T10:18:49.103Z,42.73
2022-12-17T10:21:38.267Z,42.03
2022-12-17T10:24:25.195Z,45.77
2022-12-17T10:27:11.411Z,43.83
2022-12-17T10:30:00.097Z,56.53
2022-12-17T10:32:47.122Z,46.10
2022-12-17T10:35:38.661Z,40.47
2022-12-17T10:38:47.386Z,48.80
2022-12-17T10:41:42.045Z,43.37
2022-12-17T10:44:43.087Z,59.63
2022-12-17T10:47:33.701Z,67.83
2022-12-17T10:50:21.400Z,46.60
2022-12-17T10:53:08.217Z,50.13
2022-12-17T10:55:55.658Z,52.50
2022-12-17T10:58:45.689Z,55.23
2022-12-17T11:01:38.955Z,42.87
2022-12-17T11:04:42.285Z,45.83
2022-12-17T11:07:31.897Z,50.80
2022-12-17T11:10:20.953Z,44.07
2022-12-17T11:13:13.808Z,46.10
2022-12-17T11:16:03.133Z,49.00
2022-12-17T11:18:55.348Z,41.33
2022-12-17T11:21:45.344Z,36.60
2022-12-17T11:24:42.597Z,46.97
2022-12-17T11:27:35.003Z,40.07
2022-12-17T11:30:31.222Z,43.77
2022-12-17T11:33:41.313Z,39.70
2022-12-17T11:36:38.693Z,37.70
2022-12-17T11:39:33.925Z,42.90
2022-12-17T11:42:26.785Z,42.10
2022-12-17T11:45:21.742Z,42.60
2022-12-17T11:48:16.370Z,40.90
2022-12-17T11:51:07.433Z,46.80
2022-12-17T11:54:08.167Z,46.50
2022-12-17T11:56:58.915Z,41.53
2022-12-17T11:59:57.098Z,49.67
2022-12-17T12:03:05.574Z,47.17
2022-12-17T12:06:04.397Z,45.73
2022-12-17T12:08:56.073Z,43.60
2022-12-17T12:11:52.033Z,40.50
2022-12-17T12:14:56.405Z,42.50
2022-12-17T12:17:53.827Z,44.77
2022-12-17T12:21:00.852Z,47.13
2022-12-17T12:24:00.991Z,43.20
2022-12-17T12:26:52.446Z,50.40
2022-12-17T12:30:00.926Z,42.97
2022-12-17T12:32:54.451Z,46.63
2022-12-17T12:35:44.865Z,49.33
2022-12-17T12:38:44.436Z,46.70
2022-12-17T12:41:40.252Z,43.50
2022-12-17T12:44:36.644Z,44.80
2022-12-17T12:47:28.388Z,46.43
2022-12-17T12:50:21.187Z,43.33
2022-12-17T12:53:08.161Z,43.07
2022-12-17T12:56:02.673Z,41.03
2022-12-17T12:58:50.699Z,43.03
2022-12-17T13:01:39.192Z,40.80
2022-12-17T13:04:36.832Z,47.73
2022-12-17T13:07:06.059Z,44.77
2022-12-17T13:09:48.709Z,47.50
2022-12-17T13:12:27.859Z,51.80
2022-12-17T13:15:02.413Z,48.20
2022-12-17T13:17:35.484Z,40.57
2022-12-17T13:20:24.556Z,46.60
2022-12-17T13:22:55.134Z,40.80
2022-12-17T13:25:25.055Z,42.97
2022-12-17T13:27:57.849Z,35.80
2022-12-17T13:30:34.678Z,35.63
2022-12-17T13:33:29.825Z,39.70
2022-12-17T13:36:08.369Z,47.13
2022-12-17T13:38:47.023Z,35.97
2022-12-17T13:41:18.183Z,57.17
2022-12-17T13:43:50.567Z,51.37
2022-12-17T13:46:21.798Z,38.30
2022-12-17T13:48:58.022Z,41.70
2022-12-17T13:51:28.817Z,41.17
2022-12-17T13:53:59.235Z,36.30
2022-12-17T13:56:30.346Z,38.37
2022-12-17T13:59:08.183Z,39.57
2022-12-17T14:01:46.311Z,39.13
2022-12-17T14:04:23.010Z,48.90
2022-12-17T14:06:53.296Z,43.40
2022-12-17T14:09:32.701Z,48.87
2022-12-17T14:12:24.884Z,52.40
2022-12-17T14:14:57.867Z,52.93
2022-12-17T14:17:27.863Z,48.50
2022-12-17T14:20:01.528Z,40.50
2022-12-17T14:22:36.383Z,40.80
2022-12-17T14:25:07.669Z,43.73
2022-12-17T14:27:38.117Z,46.20
2022-12-17T14:33:03.076Z,37.57
2022-12-17T14:35:34.606Z,42.83
2022-12-17T14:38:04.923Z,45.47
2022-12-17T14:40:34.260Z,46.87
2022-12-17T14:43:03.600Z,48.10
2022-12-17T14:45:32.433Z,42.07
2022-12-17T14:48:04.654Z,45.13
2022-12-17T14:50:35.906Z,46.87
2022-12-17T14:53:24.753Z,43.63
2022-12-17T14:55:57.477Z,46.03
2022-12-17T14:58:29.724Z,50.47
2022-12-17T15:01:06.769Z,40.23
2022-12-17T15:03:43.378Z,52.33
2022-12-17T15:06:16.229Z,55.33
2022-12-17T15:08:47.614Z,51.23
2022-12-17T15:11:18.188Z,45.70
2022-12-17T15:13:50.351Z,44.90
2022-12-17T15:16:23.450Z,43.87
2022-12-17T15:18:53.906Z,45.33
2022-12-17T15:21:23.236Z,45.87
2022-12-17T15:23:52.097Z,47.83
2022-12-17T15:26:21.731Z,51.93
2022-12-17T15:28:50.759Z,52.37
2022-12-17T15:31:24.657Z,53.47
2022-12-17T15:33:56.965Z,55.07
2022-12-17T15:36:25.925Z,47.93
2022-12-17T15:38:55.095Z,45.20
2022-12-17T15:41:41.578Z,45.63
2022-12-17T15:44:10.515Z,43.97
2022-12-17T15:46:40.183Z,43.93
2022-12-17T15:49:10.756Z,53.80
2022-12-17T15:51:40.274Z,49.77
2022-12-17T15:54:09.060Z,49.27
2022-12-17T15:56:39.264Z,60.93
2022-12-17T15:59:08.124Z,59.80
2022-12-17T16:01:37.247Z,55.67
2022-12-17T16:04:11.995Z,48.90
2022-12-17T16:06:46.549Z,49.37
2022-12-17T16:09:15.659Z,50.47
2022-12-17T16:11:44.696Z,51.40
2022-12-17T16:14:13.457Z,50.77
2022-12-17T16:16:42.435Z,59.00
2022-12-17T16:19:11.385Z,47.53
2022-12-17T16:21:46.371Z,51.27
2022-12-17T16:24:18.085Z,52.43
2022-12-17T16:26:47.144Z,52.70
2022-12-17T16:29:16.180Z,52.03
2022-12-17T16:31:46.393Z,53.03
2022-12-17T16:34:16.241Z,52.17
2022-12-17T16:36:45.109Z,52.47
2022-12-17T16:39:19.426Z,50.37
2022-12-17T16:41:48.498Z,51.03
2022-12-17T16:44:17.206Z,47.50
2022-12-17T16:46:46.843Z,48.33
2022-12-17T16:49:18.371Z,44.70
2022-12-17T16:51:48.404Z,48.83
2022-12-17T16:54:21.014Z,53.00
2022-12-17T16:56:50.470Z,50.23
2022-12-17T16:59:19.654Z,47.33
2022-12-17T17:01:50.211Z,52.33
2022-12-17T17:04:22.472Z,52.67
2022-12-17T17:06:53.409Z,56.53
2022-12-17T17:09:24.229Z,54.07
2022-12-17T17:11:52.985Z,61.20
2022-12-17T17:14:22.080Z,57.00
2022-12-17T17:16:50.859Z,53.07
2022-12-17T17:19:20.748Z,49.57
2022-12-17T17:21:52.149Z,58.47
2022-12-17T17:24:24.368Z,52.70
2022-12-17T17:26:54.523Z,49.43
2022-12-17T17:29:23.655Z,50.17
2022-12-17T17:32:09.724Z,51.47
2022-12-17T17:34:39.784Z,54.33
2022-12-17T17:37:08.833Z,53.07
2022-12-17T17:39:41.214Z,54.97
2022-12-17T17:42:09.976Z,56.03
2022-12-17T17:44:39.038Z,52.80
2022-12-17T17:47:07.887Z,50.93
2022-12-17T17:49:36.594Z,59.27
2022-12-17T17:52:10.256Z,62.93
2022-12-17T17:54:41.078Z,55.67
2022-12-17T17:57:10.234Z,58.10
2022-12-17T17:59:39.867Z,61.07
2022-12-17T18:02:11.259Z,54.03
2022-12-17T18:04:40.092Z,50.97
2022-12-17T18:07:25.297Z,54.33
2022-12-17T18:09:56.710Z,54.00
2022-12-17T18:12:43.149Z,58.17
2022-12-17T18:15:14.749Z,49.40
2022-12-17T18:17:44.724Z,47.73
2022-12-17T18:20:14.180Z,45.37
2022-12-17T18:22:43.644Z,45.77
2022-12-17T18:25:14.053Z,46.70
2022-12-17T18:27:43.243Z,47.10
2022-12-17T18:30:12.934Z,51.50
2022-12-17T18:32:41.871Z,49.50
2022-12-17T18:35:11.628Z,57.40
2022-12-17T18:37:41.021Z,51.07
2022-12-17T18:40:10.927Z,47.23
2022-12-17T18:42:58.386Z,45.07
2022-12-17T18:45:27.223Z,45.43
2022-12-17T18:47:56.151Z,39.23
2022-12-17T18:50:24.854Z,44.00
2022-12-17T18:52:53.834Z,42.13
2022-12-17T18:55:22.635Z,43.20
2022-12-17T18:57:52.759Z,45.67
2022-12-17T19:00:21.716Z,52.00
2022-12-17T19:02:50.563Z,50.67
2022-12-17T19:05:19.463Z,60.33
2022-12-17T19:07:48.264Z,52.40
2022-12-17T19:10:17.209Z,54.37
2022-12-17T19:12:46.389Z,46.67
2022-12-17T19:15:16.621Z,47.13
2022-12-17T19:17:45.402Z,47.90
2022-12-17T19:20:14.303Z,45.67
2022-12-17T19:22:42.943Z,44.93
2022-12-17T19:25:12.012Z,44.43
2022-12-17T19:27:40.874Z,46.00
2022-12-17T19:30:11.563Z,49.03
2022-12-17T19:32:41.784Z,44.17
2022-12-17T19:35:10.925Z,48.00
2022-12-17T19:37:39.772Z,51.90
2022-12-17T19:40:09.774Z,45.33
2022-12-17T19:42:38.519Z,44.43
2022-12-17T19:45:08.118Z,47.50
2022-12-17T19:47:37.017Z,47.93
2022-12-17T19:50:08.779Z,57.47
2022-12-17T19:52:41.056Z,51.90
2022-12-17T19:55:10.546Z,46.83
2022-12-17T19:57:39.457Z,54.97
2022-12-17T20:00:09.469Z,42.27
2022-12-17T20:02:38.400Z,50.77
2022-12-17T20:05:09.839Z,53.73
2022-12-17T20:07:38.882Z,43.67
2022-12-17T20:10:08.547Z,47.03
2022-12-17T20:12:37.623Z,50.27
2022-12-17T20:15:07.341Z,45.77
2022-12-17T20:17:39.215Z,52.53
2022-12-17T20:20:10.872Z,57.85
2022-12-17T20:22:39.611Z,47.60
2022-12-17T20:25:11.547Z,44.27
2022-12-17T20:27:44.602Z,46.47
2022-12-17T20:30:14.136Z,45.80
2022-12-17T20:32:43.132Z,38.33
2022-12-17T20:35:13.762Z,41.63
2022-12-17T20:37:42.635Z,41.57
2022-12-17T20:40:12.475Z,45.27
2022-12-17T20:42:43.431Z,47.47
2022-12-17T20:45:12.836Z,50.70
2022-12-17T20:47:41.595Z,44.13
2022-12-17T20:50:11.285Z,41.30
2022-12-17T20:52:41.539Z,42.60
2022-12-17T20:55:10.936Z,42.30
2022-12-17T20:57:39.748Z,44.07
2022-12-17T21:00:10.367Z,40.00
2022-12-17T21:02:46.140Z,40.00
2022-12-17T21:05:15.290Z,43.17
2022-12-17T21:07:48.726Z,43.03
2022-12-17T21:10:17.838Z,41.80
2022-12-17T21:13:03.727Z,40.20
2022-12-17T21:15:32.597Z,41.87
2022-12-17T21:18:01.418Z,38.80
2022-12-17T21:20:30.592Z,38.47
2022-12-17T21:23:01.499Z,35.67
2022-12-17T21:25:30.355Z,33.70
2022-12-17T21:28:03.089Z,36.63
2022-12-17T21:30:32.322Z,33.17
2022-12-17T21:33:01.596Z,36.80
2022-12-17T21:35:30.626Z,43.50
2022-12-17T21:38:00.952Z,39.03
2022-12-17T21:40:29.697Z,43.83
2022-12-17T21:43:04.210Z,38.77
2022-12-17T21:45:37.825Z,44.00
2022-12-17T21:48:13.016Z,37.00
2022-12-17T21:50:45.607Z,36.43
2022-12-17T21:53:16.729Z,38.80
2022-12-17T21:55:45.825Z,38.83
2022-12-17T21:58:15.570Z,49.40
2022-12-17T22:00:44.733Z,45.78
2022-12-17T22:03:13.605Z,38.57
2022-12-17T22:05:42.366Z,40.97
2022-12-17T22:08:12.789Z,34.70
2022-12-17T22:10:49.111Z,36.03
2022-12-17T22:13:37.337Z,35.73
2022-12-17T22:16:07.943Z,36.17
2022-12-17T22:18:36.730Z,34.00
2022-12-17T22:21:05.915Z,36.33
2022-12-17T22:23:34.663Z,33.47
2022-12-17T22:26:10.752Z,38.47
2022-12-17T22:28:40.047Z,38.60
2022-12-17T22:31:35.815Z,46.03
2022-12-17T22:35:09.645Z,45.47
2022-12-17T22:39:25.494Z,43.33
2022-12-17T22:44:24.956Z,50.23
2022-12-17T22:44:41.788Z,34.80
2022-12-17T22:45:40.625Z,34.17
2022-12-17T22:48:10.003Z,35.87
2022-12-17T22:50:49.471Z,27.10
2022-12-17T22:53:27.925Z,29.97
2022-12-17T22:55:56.951Z,38.50
2022-12-17T22:58:28.096Z,33.47
2022-12-17T23:00:56.832Z,33.47
2022-12-17T23:03:25.609Z,30.87
2022-12-17T23:05:54.600Z,33.27
2022-12-17T23:08:23.249Z,36.07
2022-12-17T23:10:51.935Z,35.80
2022-12-17T23:13:20.782Z,37.17
2022-12-17T23:15:53.279Z,37.90
2022-12-17T23:18:21.933Z,36.43
2022-12-17T23:20:50.621Z,42.67
2022-12-17T23:23:19.320Z,43.53
2022-12-17T23:25:47.940Z,43.50
2022-12-17T23:28:16.642Z,43.07
2022-12-17T23:30:45.402Z,39.77
2022-12-17T23:33:15.634Z,41.37
2022-12-17T23:35:44.278Z,40.50
2022-12-17T23:38:12.933Z,42.23
2022-12-17T23:40:41.618Z,39.77
2022-12-17T23:43:14.359Z,43.23
2022-12-17T23:45:46.093Z,39.60
2022-12-17T23:48:16.254Z,40.50
2022-12-17T23:50:44.930Z,40.53
2022-12-17T23:53:13.596Z,43.73
2022-12-17T23:55:47.377Z,44.07
2022-12-17T23:58:16.274Z,40.33
